createdAt,value
2017-06-16T00:01:24.425Z,22.70
2017-06-16T00:03:50.723Z,22.70
2017-06-16T00:06:16.972Z,21.60
2017-06-16T00:08:43.175Z,22.80
2017-06-16T00:11:09.386Z,22.80
2017-06-16T00:13:36.331Z,22.70
2017-06-16T00:16:02.506Z,22.70
2017-06-16T00:18:28.669Z,22.60
2017-06-16T00:20:54.884Z,22.60
2017-06-16T00:23:21.783Z,22.60
2017-06-16T00:25:47.977Z,22.50
2017-06-16T00:28:14.321Z,22.50
2017-06-16T00:30:40.509Z,22.50
2017-06-16T00:33:07.607Z,22.50
2017-06-16T00:35:33.759Z,22.50
2017-06-16T00:37:59.971Z,22.40
2017-06-16T00:40:26.215Z,22.40
2017-06-16T00:42:52.391Z,22.30
2017-06-16T00:45:18.605Z,22.30
2017-06-16T00:47:45.579Z,22.30
2017-06-16T00:50:11.758Z,22.20
2017-06-16T00:52:38.050Z,22.10
2017-06-16T00:55:04.471Z,22.10
2017-06-16T00:57:30.705Z,22.10
2017-06-16T00:59:56.905Z,22.10
2017-06-16T01:02:23.806Z,22.10
2017-06-16T01:04:49.974Z,22.10
2017-06-16T01:07:17.040Z,22.20
2017-06-16T01:09:43.778Z,22.10
2017-06-16T01:12:11.464Z,22.10
2017-06-16T01:14:39.118Z,22.00
2017-06-16T01:17:05.460Z,22.00
2017-06-16T01:19:31.752Z,22.00
2017-06-16T01:21:58.780Z,21.90
2017-06-16T01:24:24.937Z,21.40
2017-06-16T01:26:51.867Z,21.90
2017-06-16T01:29:18.798Z,22.00
2017-06-16T01:31:45.156Z,21.90
2017-06-16T01:34:12.100Z,21.90
2017-06-16T01:36:39.026Z,21.80
2017-06-16T01:39:05.220Z,21.80
2017-06-16T01:41:31.536Z,21.80
2017-06-16T01:43:57.688Z,21.90
2017-06-16T01:46:23.902Z,21.80
2017-06-16T01:48:50.156Z,21.80
2017-06-16T01:51:16.373Z,21.70
2017-06-16T01:53:42.573Z,21.70
2017-06-16T01:56:08.817Z,21.80
2017-06-16T01:58:35.019Z,21.80
2017-06-16T02:01:01.254Z,21.90
2017-06-16T02:03:27.486Z,21.80
2017-06-16T02:05:53.675Z,21.80
2017-06-16T02:08:20.861Z,21.90
2017-06-16T02:10:47.006Z,21.70
2017-06-16T02:13:13.690Z,21.70
2017-06-16T02:15:40.926Z,21.70
2017-06-16T02:18:07.487Z,21.70
2017-06-16T02:20:34.389Z,21.60
2017-06-16T02:23:00.584Z,21.60
2017-06-16T02:25:26.760Z,21.60
2017-06-16T02:27:52.979Z,21.60
2017-06-16T02:30:19.198Z,21.60
2017-06-16T02:32:45.494Z,21.60
2017-06-16T02:35:11.658Z,21.50
2017-06-16T02:37:37.822Z,21.50
2017-06-16T02:40:03.998Z,21.50
2017-06-16T02:42:30.178Z,21.40
2017-06-16T02:44:56.344Z,21.50
2017-06-16T02:47:23.275Z,21.40
2017-06-16T02:49:50.211Z,21.40
2017-06-16T02:52:16.508Z,21.30
2017-06-16T02:54:42.733Z,21.30
2017-06-16T02:57:09.029Z,21.30
2017-06-16T02:59:35.334Z,21.30
2017-06-16T03:02:02.343Z,21.20
2017-06-16T03:04:28.540Z,21.20
2017-06-16T03:06:54.719Z,21.20
2017-06-16T03:09:23.771Z,21.00
2017-06-16T03:11:49.955Z,21.00
2017-06-16T03:14:16.694Z,20.90
2017-06-16T03:16:43.586Z,20.80
2017-06-16T03:19:09.789Z,20.80
2017-06-16T03:21:41.979Z,20.60
2017-06-16T03:24:08.162Z,20.60
2017-06-16T03:26:34.324Z,20.60
2017-06-16T03:29:00.589Z,20.60
2017-06-16T03:31:26.767Z,20.70
2017-06-16T03:33:53.784Z,20.70
2017-06-16T03:36:19.958Z,20.80
2017-06-16T03:38:46.095Z,20.80
2017-06-16T03:41:12.287Z,20.80
2017-06-16T03:43:39.199Z,20.80
2017-06-16T03:46:05.367Z,20.80
2017-06-16T03:48:32.298Z,20.80
2017-06-16T03:50:59.253Z,20.90
2017-06-16T03:53:26.148Z,20.70
2017-06-16T03:55:52.314Z,20.70
2017-06-16T03:58:18.498Z,20.70
2017-06-16T04:00:44.678Z,20.50
2017-06-16T04:03:11.623Z,20.60
2017-06-16T04:05:38.554Z,20.50
2017-06-16T04:08:04.703Z,20.40
2017-06-16T04:10:31.646Z,20.40
2017-06-16T04:12:58.547Z,20.40
2017-06-16T04:15:24.765Z,20.40
2017-06-16T04:17:50.939Z,20.50
2017-06-16T04:20:17.104Z,20.50
2017-06-16T04:22:43.367Z,20.60
2017-06-16T04:25:09.529Z,20.70
2017-06-16T04:27:36.431Z,20.60
2017-06-16T04:30:02.650Z,20.60
2017-06-16T04:32:28.809Z,20.60
2017-06-16T04:34:55.018Z,20.50
2017-06-16T04:37:21.186Z,20.40
2017-06-16T04:39:48.118Z,20.50
2017-06-16T04:42:14.356Z,20.50
2017-06-16T04:44:41.278Z,20.60
2017-06-16T04:47:07.494Z,20.60
2017-06-16T04:49:33.647Z,20.60
2017-06-16T04:51:59.815Z,20.50
2017-06-16T04:54:26.030Z,20.50
2017-06-16T04:56:52.938Z,20.50
2017-06-16T04:59:34.060Z,20.50
2017-06-16T05:02:00.283Z,20.60
2017-06-16T05:04:27.265Z,20.60
2017-06-16T05:06:53.442Z,20.60
2017-06-16T05:09:20.320Z,20.70
2017-06-16T05:11:46.526Z,20.60
2017-06-16T05:14:13.464Z,20.50
2017-06-16T05:16:39.663Z,20.50
2017-06-16T05:19:05.830Z,20.50
2017-06-16T05:21:32.745Z,20.70
2017-06-16T05:23:58.941Z,20.70
2017-06-16T05:26:25.075Z,20.80
2017-06-16T05:28:51.291Z,21.20
2017-06-16T05:31:17.466Z,21.10
2017-06-16T05:33:43.653Z,21.10
2017-06-16T05:36:09.852Z,21.10
2017-06-16T05:38:36.006Z,21.60
2017-06-16T05:41:02.243Z,22.20
2017-06-16T05:43:28.408Z,22.10
2017-06-16T05:46:09.496Z,22.10
2017-06-16T05:48:36.419Z,22.20
2017-06-16T05:51:02.606Z,22.20
2017-06-16T05:53:28.787Z,22.60
2017-06-16T05:55:55.384Z,22.90
2017-06-16T05:58:21.518Z,22.80
2017-06-16T06:00:47.708Z,22.60
2017-06-16T06:03:13.854Z,22.10
2017-06-16T06:05:40.028Z,22.00
2017-06-16T06:08:06.180Z,22.00
2017-06-16T06:10:32.339Z,21.90
2017-06-16T06:12:58.514Z,21.90
2017-06-16T06:15:25.487Z,22.00
2017-06-16T06:17:51.713Z,22.00
2017-06-16T06:20:17.903Z,22.00
2017-06-16T06:22:44.089Z,22.30
2017-06-16T06:25:10.301Z,22.80
2017-06-16T06:27:36.474Z,22.90
2017-06-16T06:30:02.670Z,23.60
2017-06-16T06:32:28.855Z,25.00
2017-06-16T06:34:55.059Z,24.70
2017-06-16T06:37:21.254Z,24.70
2017-06-16T06:39:47.442Z,24.60
2017-06-16T06:42:13.628Z,24.60
2017-06-16T06:44:39.815Z,24.60
2017-06-16T06:47:06.747Z,25.20
2017-06-16T06:49:33.654Z,25.40
2017-06-16T06:51:59.786Z,25.80
2017-06-16T06:54:25.998Z,25.80
2017-06-16T06:56:52.244Z,26.20
2017-06-16T06:59:18.398Z,26.80
2017-06-16T07:01:44.554Z,27.10
2017-06-16T07:04:10.748Z,27.30
2017-06-16T07:06:36.931Z,27.20
2017-06-16T07:09:03.109Z,27.20
2017-06-16T07:11:29.332Z,27.30
2017-06-16T07:13:55.504Z,27.00
2017-06-16T07:16:21.679Z,27.20
2017-06-16T07:18:47.863Z,27.30
2017-06-16T07:21:14.066Z,27.80
2017-06-16T07:23:40.256Z,28.10
2017-06-16T07:26:06.479Z,28.30
2017-06-16T07:28:32.638Z,28.50
2017-06-16T07:30:58.813Z,29.00
2017-06-16T07:33:24.981Z,29.20
2017-06-16T07:35:51.163Z,29.20
2017-06-16T07:38:17.418Z,29.20
2017-06-16T07:40:43.611Z,29.60
2017-06-16T07:43:09.883Z,29.70
2017-06-16T07:45:36.084Z,30.00
2017-06-16T07:48:02.278Z,29.30
2017-06-16T07:50:28.892Z,29.90
2017-06-16T07:52:55.075Z,30.20
2017-06-16T07:55:21.288Z,30.20
2017-06-16T07:57:47.544Z,30.20
2017-06-16T08:00:13.711Z,30.70
2017-06-16T08:02:39.971Z,30.80
2017-06-16T08:05:06.882Z,31.10
2017-06-16T08:07:33.061Z,31.10
2017-06-16T08:09:59.288Z,31.10
2017-06-16T08:12:25.482Z,31.20
2017-06-16T08:14:52.407Z,31.30
2017-06-16T08:17:18.668Z,31.30
2017-06-16T08:19:45.598Z,30.30
2017-06-16T08:22:12.197Z,30.20
2017-06-16T08:24:38.360Z,30.10
2017-06-16T08:27:04.528Z,29.80
2017-06-16T08:29:30.723Z,28.90
2017-06-16T08:31:57.650Z,28.60
2017-06-16T08:34:23.954Z,28.60
2017-06-16T08:36:50.735Z,28.40
2017-06-16T08:39:17.435Z,28.00
2017-06-16T08:41:43.768Z,28.00
2017-06-16T08:44:11.036Z,28.30
2017-06-16T08:46:38.860Z,28.20
2017-06-16T08:49:05.115Z,28.40
2017-06-16T08:51:32.433Z,28.40
2017-06-16T08:53:59.434Z,28.40
2017-06-16T08:56:25.610Z,28.40
2017-06-16T08:58:52.569Z,28.70
2017-06-16T09:01:18.736Z,28.70
2017-06-16T09:03:59.899Z,28.60
2017-06-16T09:06:26.112Z,28.50
2017-06-16T09:08:52.282Z,28.40
2017-06-16T09:11:18.465Z,28.60
2017-06-16T09:13:44.746Z,28.40
2017-06-16T09:16:10.958Z,28.20
2017-06-16T09:18:37.187Z,28.30
2017-06-16T09:21:03.383Z,28.30
2017-06-16T09:23:29.538Z,28.50
2017-06-16T09:25:55.752Z,28.20
2017-06-16T09:28:21.916Z,28.10
2017-06-16T09:30:48.089Z,27.80
2017-06-16T09:33:14.291Z,27.00
2017-06-16T09:35:41.210Z,27.50
2017-06-16T09:38:07.397Z,27.50
2017-06-16T09:40:33.595Z,27.80
2017-06-16T09:43:00.762Z,28.10
2017-06-16T09:45:27.036Z,28.30
2017-06-16T09:47:53.773Z,27.80
2017-06-16T09:50:21.327Z,27.90
2017-06-16T09:52:49.616Z,28.60
2017-06-16T09:55:15.794Z,29.10
2017-06-16T09:57:42.029Z,29.20
2017-06-16T10:00:08.506Z,29.40
2017-06-16T10:02:34.699Z,29.30
2017-06-16T10:05:00.883Z,28.50
2017-06-16T10:07:27.474Z,27.70
2017-06-16T10:09:53.671Z,27.60
2017-06-16T10:12:21.104Z,28.30
2017-06-16T10:14:47.317Z,28.50
2017-06-16T10:17:13.929Z,29.00
2017-06-16T10:19:40.100Z,29.00
2017-06-16T10:22:06.370Z,27.30
2017-06-16T10:24:32.563Z,26.70
2017-06-16T10:26:59.077Z,26.60
2017-06-16T10:29:25.231Z,26.30
2017-06-16T10:31:51.507Z,25.60
2017-06-16T10:34:17.737Z,26.00
2017-06-16T10:36:43.936Z,26.20
2017-06-16T10:39:10.888Z,25.90
2017-06-16T10:41:37.083Z,25.90
2017-06-16T10:44:04.273Z,25.70
2017-06-16T10:46:30.531Z,25.60
2017-06-16T10:48:56.906Z,25.60
2017-06-16T10:51:24.331Z,25.50
2017-06-16T10:53:51.715Z,25.80
2017-06-16T10:56:18.310Z,25.80
2017-06-16T10:58:44.634Z,26.20
2017-06-16T11:01:11.652Z,26.00
2017-06-16T11:03:38.970Z,25.80
2017-06-16T11:06:05.259Z,25.90
2017-06-16T11:08:31.627Z,26.10
2017-06-16T11:10:58.557Z,26.30
2017-06-16T11:13:25.676Z,26.50
2017-06-16T11:15:52.000Z,26.70
2017-06-16T11:18:18.947Z,26.70
2017-06-16T11:20:45.824Z,26.60
2017-06-16T11:23:12.451Z,26.20
2017-06-16T11:25:39.206Z,26.00
2017-06-16T11:28:07.491Z,25.70
2017-06-16T11:30:34.794Z,25.50
2017-06-16T11:33:02.952Z,25.40
2017-06-16T11:35:29.398Z,25.30
2017-06-16T11:37:55.784Z,25.20
2017-06-16T11:40:22.115Z,25.10
2017-06-16T11:42:48.990Z,25.30
2017-06-16T11:45:17.111Z,25.60
2017-06-16T11:47:45.438Z,25.80
2017-06-16T11:50:11.866Z,25.50
2017-06-16T11:52:38.162Z,25.60
2017-06-16T11:55:04.698Z,25.10
2017-06-16T11:57:31.052Z,25.10
2017-06-16T11:59:57.275Z,24.90
2017-06-16T12:02:23.484Z,25.10
2017-06-16T12:04:49.677Z,25.30
2017-06-16T12:07:15.906Z,25.50
2017-06-16T12:09:42.868Z,25.50
2017-06-16T12:12:09.079Z,25.40
2017-06-16T12:14:36.091Z,25.50
2017-06-16T12:17:02.287Z,26.00
2017-06-16T12:19:29.083Z,26.60
2017-06-16T12:21:56.776Z,27.10
2017-06-16T12:24:23.177Z,27.30
2017-06-16T12:26:49.358Z,27.30
2017-06-16T12:29:15.534Z,27.20
2017-06-16T12:31:41.788Z,26.80
2017-06-16T12:34:08.000Z,26.90
2017-06-16T12:36:34.960Z,26.50
2017-06-16T12:39:16.843Z,26.20
2017-06-16T12:41:43.937Z,26.20
2017-06-16T12:44:10.118Z,26.20
2017-06-16T12:46:36.334Z,26.40
2017-06-16T12:49:02.556Z,26.30
2017-06-16T12:51:28.772Z,26.20
2017-06-16T12:53:54.944Z,26.20
2017-06-16T12:56:21.872Z,26.10
2017-06-16T12:58:48.109Z,26.20
2017-06-16T13:01:15.075Z,26.40
2017-06-16T13:03:41.991Z,26.40
2017-06-16T13:06:08.227Z,26.40
2017-06-16T13:08:34.399Z,26.10
2017-06-16T13:11:00.597Z,26.00
2017-06-16T13:13:27.581Z,25.90
2017-06-16T13:15:53.846Z,25.90
2017-06-16T13:18:20.014Z,25.80
2017-06-16T13:20:47.039Z,26.00
2017-06-16T13:23:13.999Z,26.10
2017-06-16T13:25:40.935Z,26.30
2017-06-16T13:28:07.888Z,26.20
2017-06-16T13:30:34.850Z,26.10
2017-06-16T13:33:01.042Z,26.10
2017-06-16T13:35:27.970Z,26.20
2017-06-16T13:37:54.162Z,26.20
2017-06-16T13:40:20.425Z,26.00
2017-06-16T13:42:46.616Z,25.90
2017-06-16T13:45:12.802Z,25.50
2017-06-16T13:47:39.001Z,25.40
2017-06-16T13:50:06.462Z,25.20
2017-06-16T13:52:32.723Z,25.20
2017-06-16T13:55:00.679Z,25.30
2017-06-16T13:57:26.967Z,25.30
2017-06-16T13:59:53.475Z,25.60
2017-06-16T14:02:19.670Z,25.70
2017-06-16T14:04:45.862Z,25.70
2017-06-16T14:07:13.409Z,25.40
2017-06-16T14:09:41.007Z,25.40
2017-06-16T14:12:08.023Z,25.20
2017-06-16T14:14:34.220Z,25.20
2017-06-16T14:17:02.070Z,25.10
2017-06-16T14:19:30.692Z,25.20
2017-06-16T14:21:56.909Z,25.20
2017-06-16T14:24:23.831Z,25.30
2017-06-16T14:26:50.043Z,25.30
2017-06-16T14:29:16.245Z,25.20
2017-06-16T14:31:42.396Z,25.20
2017-06-16T14:34:08.720Z,24.90
2017-06-16T14:36:43.258Z,24.80
2017-06-16T14:39:10.953Z,24.80
2017-06-16T14:41:37.881Z,24.80
2017-06-16T14:44:04.067Z,24.80
2017-06-16T14:46:30.388Z,25.00
2017-06-16T14:48:56.578Z,25.00
2017-06-16T14:51:23.637Z,25.00
2017-06-16T14:53:50.571Z,25.00
2017-06-16T14:56:17.510Z,25.00
2017-06-16T14:58:43.733Z,24.90
2017-06-16T15:01:10.103Z,24.80
2017-06-16T15:03:36.315Z,24.80
2017-06-16T15:06:03.258Z,24.80
2017-06-16T15:08:30.216Z,24.80
2017-06-16T15:10:56.436Z,24.80
2017-06-16T15:13:23.360Z,24.70
2017-06-16T15:15:50.725Z,24.60
2017-06-16T15:18:16.877Z,24.60
2017-06-16T15:20:43.074Z,24.60
2017-06-16T15:23:13.313Z,24.60
2017-06-16T15:25:44.572Z,24.60
2017-06-16T15:28:11.252Z,24.70
2017-06-16T15:30:49.459Z,24.70
2017-06-16T15:33:16.649Z,24.60
2017-06-16T15:35:42.901Z,24.60
2017-06-16T15:38:09.822Z,24.60
2017-06-16T15:40:36.010Z,24.50
2017-06-16T15:43:02.247Z,24.50
2017-06-16T15:45:28.453Z,24.50
2017-06-16T15:47:54.738Z,24.50
2017-06-16T15:50:20.934Z,24.60
2017-06-16T15:52:47.353Z,24.40
2017-06-16T15:55:13.842Z,24.30
2017-06-16T15:57:41.796Z,24.30
2017-06-16T16:00:08.069Z,24.30
2017-06-16T16:02:34.529Z,24.10
2017-06-16T16:05:01.416Z,24.10
2017-06-16T16:07:27.704Z,24.10
2017-06-16T16:09:55.072Z,24.10
2017-06-16T16:12:22.222Z,24.00
2017-06-16T16:14:50.512Z,24.00
2017-06-16T16:17:16.699Z,24.10
2017-06-16T16:19:42.943Z,24.10
2017-06-16T16:22:09.240Z,24.20
2017-06-16T16:24:36.180Z,24.20
2017-06-16T16:27:03.226Z,24.20
2017-06-16T16:29:30.197Z,24.20
2017-06-16T16:31:58.744Z,24.20
2017-06-16T16:34:26.603Z,24.20
2017-06-16T16:36:52.819Z,24.20
2017-06-16T16:39:19.499Z,24.10
2017-06-16T16:41:48.277Z,24.00
2017-06-16T16:44:14.502Z,24.00
2017-06-16T16:46:41.654Z,23.90
2017-06-16T16:49:09.226Z,23.80
2017-06-16T16:51:35.820Z,23.80
2017-06-16T16:54:02.158Z,23.80
2017-06-16T16:56:28.573Z,23.80
2017-06-16T16:58:54.849Z,23.70
2017-06-16T17:01:23.353Z,23.70
2017-06-16T17:03:51.951Z,23.60
2017-06-16T17:06:18.338Z,23.60
2017-06-16T17:08:44.566Z,23.60
2017-06-16T17:11:11.829Z,23.50
2017-06-16T17:13:40.110Z,23.50
2017-06-16T17:16:06.483Z,23.50
2017-06-16T17:18:32.879Z,23.50
2017-06-16T17:20:59.933Z,23.30
2017-06-16T17:23:26.215Z,23.30
2017-06-16T17:25:52.502Z,23.30
2017-06-16T17:28:18.930Z,23.30
2017-06-16T17:30:45.248Z,23.20
2017-06-16T17:33:11.565Z,23.10
2017-06-16T17:35:39.777Z,23.10
2017-06-16T17:38:06.084Z,23.00
2017-06-16T17:40:33.213Z,23.00
2017-06-16T17:43:00.596Z,23.00
2017-06-16T17:45:26.942Z,23.10
2017-06-16T17:47:54.104Z,23.00
2017-06-16T17:50:20.408Z,23.00
2017-06-16T17:52:47.540Z,23.00
2017-06-16T17:55:14.615Z,23.00
2017-06-16T17:57:41.608Z,22.90
2017-06-16T18:00:08.826Z,22.90
2017-06-16T18:02:36.167Z,22.90
2017-06-16T18:05:02.566Z,22.80
2017-06-16T18:07:28.881Z,22.80
2017-06-16T18:09:55.838Z,22.80
2017-06-16T18:12:23.089Z,22.70
2017-06-16T18:14:49.607Z,22.70
2017-06-16T18:17:16.178Z,22.70
2017-06-16T18:19:42.441Z,22.60
2017-06-16T18:22:08.750Z,22.50
2017-06-16T18:24:35.123Z,22.50
2017-06-16T18:27:01.461Z,22.50
2017-06-16T18:29:28.631Z,22.40
2017-06-16T18:31:54.967Z,22.40
2017-06-16T18:34:21.330Z,22.30
2017-06-16T18:36:47.702Z,22.30
2017-06-16T18:39:14.160Z,22.30
2017-06-16T18:41:40.575Z,22.30
2017-06-16T18:44:07.877Z,22.30
2017-06-16T18:46:34.213Z,22.30
2017-06-16T18:49:00.514Z,22.30
2017-06-16T18:51:26.881Z,22.30
2017-06-16T18:53:53.948Z,22.20
2017-06-16T18:56:20.857Z,22.20
2017-06-16T18:58:47.743Z,22.20
2017-06-16T19:01:14.083Z,22.20
2017-06-16T19:03:40.759Z,22.10
2017-06-16T19:06:07.055Z,22.10
2017-06-16T19:08:34.184Z,22.00
2017-06-16T19:11:01.613Z,22.00
2017-06-16T19:13:28.903Z,22.00
2017-06-16T19:15:55.127Z,21.70
2017-06-16T19:18:22.142Z,22.00
2017-06-16T19:20:48.543Z,21.90
2017-06-16T19:23:14.737Z,21.90
2017-06-16T19:25:42.349Z,21.80
2017-06-16T19:28:09.312Z,21.80
2017-06-16T19:30:35.569Z,21.70
2017-06-16T19:33:02.642Z,21.70
2017-06-16T19:35:29.770Z,21.70
2017-06-16T19:37:56.994Z,21.70
2017-06-16T19:40:23.974Z,21.70
2017-06-16T19:42:50.243Z,21.60
2017-06-16T19:45:16.475Z,21.60
2017-06-16T19:47:42.753Z,21.60
2017-06-16T19:50:10.237Z,21.60
2017-06-16T19:52:36.448Z,21.60
2017-06-16T19:55:02.690Z,21.60
2017-06-16T19:57:28.906Z,21.60
2017-06-16T19:59:55.149Z,21.60
2017-06-16T20:02:21.414Z,21.50
2017-06-16T20:04:47.656Z,21.30
2017-06-16T20:07:13.971Z,21.20
2017-06-16T20:09:40.216Z,21.20
2017-06-16T20:12:06.489Z,21.20
2017-06-16T20:14:32.685Z,21.20
2017-06-16T20:16:58.914Z,21.10
2017-06-16T20:19:25.798Z,21.00
2017-06-16T20:21:52.115Z,21.00
2017-06-16T20:24:20.135Z,20.90
2017-06-16T20:26:57.275Z,20.90
2017-06-16T20:29:36.615Z,20.90
2017-06-16T20:32:21.690Z,20.80
2017-06-16T20:34:51.814Z,20.80
2017-06-16T20:37:18.004Z,20.70
2017-06-16T20:39:44.205Z,20.70
2017-06-16T20:42:10.493Z,20.70
2017-06-16T20:44:36.692Z,20.70
2017-06-16T20:47:04.300Z,20.70
2017-06-16T20:49:30.592Z,20.70
2017-06-16T20:51:57.555Z,20.60
2017-06-16T20:54:24.782Z,20.60
2017-06-16T20:56:51.034Z,20.60
2017-06-16T20:59:17.970Z,20.60
2017-06-16T21:01:44.964Z,20.50
2017-06-16T21:04:11.142Z,20.60
2017-06-16T21:06:38.175Z,20.50
2017-06-16T21:09:04.361Z,20.50
2017-06-16T21:11:30.544Z,20.50
2017-06-16T21:13:57.496Z,20.40
2017-06-16T21:16:24.503Z,20.30
2017-06-16T21:18:50.704Z,20.30
2017-06-16T21:21:17.768Z,20.30
2017-06-16T21:23:43.997Z,20.30
2017-06-16T21:26:10.225Z,20.20
2017-06-16T21:28:36.427Z,20.20
2017-06-16T21:31:02.686Z,20.10
2017-06-16T21:33:28.912Z,20.10
2017-06-16T21:35:55.071Z,20.10
2017-06-16T21:38:21.307Z,20.10
2017-06-16T21:40:47.491Z,20.00
2017-06-16T21:43:13.683Z,20.00
2017-06-16T21:45:40.683Z,20.00
2017-06-16T21:48:06.888Z,20.00
2017-06-16T21:50:33.113Z,20.00
2017-06-16T21:52:59.361Z,19.90
2017-06-16T21:55:26.475Z,19.90
2017-06-16T21:57:52.712Z,19.90
2017-06-16T22:00:18.981Z,19.90
2017-06-16T22:02:45.195Z,19.80
2017-06-16T22:05:11.381Z,19.80
2017-06-16T22:07:38.376Z,19.80
2017-06-16T22:10:04.581Z,19.80
2017-06-16T22:12:30.773Z,19.70
2017-06-16T22:14:56.977Z,19.60
2017-06-16T22:17:23.168Z,19.60
2017-06-16T22:19:49.385Z,19.70
2017-06-16T22:22:15.616Z,19.60
2017-06-16T22:24:44.331Z,19.50
2017-06-16T22:27:10.893Z,19.50
2017-06-16T22:29:37.109Z,19.40
2017-06-16T22:32:04.319Z,19.20
2017-06-16T22:34:30.477Z,19.30
2017-06-16T22:36:56.671Z,19.30
2017-06-16T22:39:22.826Z,19.30
2017-06-16T22:41:51.767Z,19.30
2017-06-16T22:44:18.743Z,19.30
2017-06-16T22:46:44.986Z,19.30
2017-06-16T22:49:18.077Z,19.20
2017-06-16T22:51:46.035Z,19.20
2017-06-16T22:54:12.241Z,19.20
2017-06-16T22:56:39.212Z,19.30
2017-06-16T22:59:05.456Z,19.30
2017-06-16T23:01:31.708Z,19.20
2017-06-16T23:03:58.002Z,19.20
2017-06-16T23:06:39.100Z,19.20
2017-06-16T23:09:06.328Z,19.20
2017-06-16T23:11:32.509Z,19.20
2017-06-16T23:13:59.046Z,19.20
2017-06-16T23:16:26.268Z,19.20
2017-06-16T23:18:52.795Z,19.10
2017-06-16T23:21:19.276Z,19.10
2017-06-16T23:23:47.034Z,19.00
2017-06-16T23:26:14.364Z,18.90
2017-06-16T23:28:40.883Z,18.90
2017-06-16T23:31:07.037Z,18.90
2017-06-16T23:33:33.293Z,18.90
2017-06-16T23:35:59.566Z,19.00
2017-06-16T23:38:40.760Z,19.00
2017-06-16T23:41:07.376Z,19.00
2017-06-16T23:43:33.610Z,18.90
2017-06-16T23:45:59.910Z,19.00
2017-06-16T23:48:26.911Z,19.00
2017-06-16T23:50:53.165Z,19.00
2017-06-16T23:53:19.514Z,19.00
2017-06-16T23:55:46.654Z,19.00
2017-06-16T23:58:12.840Z,19.00
